Time;durP1;ratioP1;P1;durP2;ratioP2;P2;SDS_P1;SDS_P2;PMS_P1;PMS_P2;Temp;Humidity;BMP_temperature;BMP_pressure;BME280_temperature;BME280_humidity;BME280_pressure;Samples;Min_cycle;Max_cycle;Signal;HPM_P1;HPM_P2
2022/01/30 00:02:05;;;;;;;9.70;2.20;;;;;;;;;;5146193;27;20046;-77
2022/01/30 00:04:31;;;;;;;11.73;1.77;;;;;;;;;;5146911;27;20030;-74
2022/01/30 00:06:57;;;;;;;12.70;3.07;;;;;;;;;;5155344;27;20027;-74
2022/01/30 00:09:28;;;;;;;11.10;2.53;;;;;;;;;;5139265;27;20035;-77
2022/01/30 00:11:58;;;;;;;10.53;3.00;;;;;;;;;;5141170;27;20079;-75
2022/01/30 00:14:29;;;;;;;7.30;2.43;;;;;;;;;;5136847;27;20037;-74
2022/01/30 00:17:09;;;;;;;13.33;2.13;;;;;;;;;;5141779;27;20034;-75
2022/01/30 00:19:45;;;;;;;5.07;1.73;;;;;;;;;;5155703;27;20134;-75
2022/01/30 00:24:55;;;;;;;5.57;1.73;;;;;;;;;;5138210;27;20024;-76
2022/01/30 00:27:29;;;;;;;3.65;1.67;;;;;;;;;;5140259;27;20055;-78
2022/01/30 00:29:55;;;;;;;4.20;1.50;;;;;;;;;;5138161;27;20039;-74
2022/01/30 00:32:22;;;;;;;8.67;2.77;;;;;;;;;;5138140;27;20007;-75
2022/01/30 00:34:48;;;;;;;16.27;4.40;;;;;;;;;;5138145;27;20015;-76
2022/01/30 00:37:15;;;;;;;14.30;2.47;;;;;;;;;;5133857;27;20036;-76
2022/01/30 00:39:41;;;;;;;12.13;2.30;;;;;;;;;;5139853;27;20028;-77
2022/01/30 00:42:07;;;;;;;10.43;2.17;;;;;;;;;;5137707;27;20031;-75
2022/01/30 00:44:33;;;;;;;11.77;3.00;;;;;;;;;;5136269;27;20072;-75
2022/01/30 00:47:01;;;;;;;18.90;2.93;;;;;;;;;;5156116;27;20042;-77
2022/01/30 00:49:27;;;;;;;6.97;2.23;;;;;;;;;;5140405;27;20039;-75
2022/01/30 00:51:53;;;;;;;13.07;2.27;;;;;;;;;;5138297;27;20035;-79
2022/01/30 00:54:25;;;;;;;13.00;2.90;;;;;;;;;;5145771;27;20040;-77
2022/01/30 00:56:53;;;;;;;9.33;4.13;;;;;;;;;;5139779;27;20030;-75
2022/01/30 00:59:19;;;;;;;8.67;2.20;;;;;;;;;;5144888;27;20016;-76
2022/01/30 01:01:47;;;;;;;7.33;2.23;;;;;;;;;;5134244;27;20058;-75
2022/01/30 01:04:19;;;;;;;8.37;2.47;;;;;;;;;;5138031;27;20043;-76
2022/01/30 01:06:49;;;;;;;8.87;2.37;;;;;;;;;;5150336;27;20063;-79
2022/01/30 01:09:16;;;;;;;12.53;3.10;;;;;;;;;;5135009;27;20022;-76
2022/01/30 01:12:10;;;;;;;9.27;3.03;;;;;;;;;;5138772;27;20047;-76
2022/01/30 01:23:31;;;;;;;11.70;2.73;;;;;;;;;;5137187;27;20045;-76
2022/01/30 01:25:57;;;;;;;6.40;2.87;;;;;;;;;;5138173;27;20031;-73
2022/01/30 01:28:45;;;;;;;15.80;2.47;;;;;;;;;;5144975;27;20032;-75
2022/01/30 01:31:13;;;;;;;7.87;2.00;;;;;;;;;;5136325;27;20035;-75
2022/01/30 01:33:55;;;;;;;12.03;3.03;;;;;;;;;;5142289;27;20104;-76
2022/01/30 01:36:24;;;;;;;8.63;2.33;;;;;;;;;;5137743;27;20066;-74
2022/01/30 01:38:53;;;;;;;12.70;2.63;;;;;;;;;;5138424;27;20027;-77
2022/01/30 01:41:24;;;;;;;18.17;3.90;;;;;;;;;;5142449;27;20572;-76
2022/01/30 01:43:50;;;;;;;8.57;2.67;;;;;;;;;;5142175;27;20031;-78
2022/01/30 01:46:21;;;;;;;9.33;2.20;;;;;;;;;;5139245;27;20018;-78
2022/01/30 01:48:52;;;;;;;12.57;2.27;;;;;;;;;;5136034;27;20036;-75
2022/01/30 01:51:21;;;;;;;11.57;2.83;;;;;;;;;;5135506;27;20019;-76
2022/01/30 01:53:49;;;;;;;10.40;2.63;;;;;;;;;;5150151;27;20024;-73
2022/01/30 01:56:19;;;;;;;12.17;2.10;;;;;;;;;;5149061;27;20031;-77
2022/01/30 01:58:45;;;;;;;5.47;1.10;;;;;;;;;;5133399;27;20027;-74
2022/01/30 02:01:11;;;;;;;11.73;1.90;;;;;;;;;;5134659;27;20551;-78
2022/01/30 02:03:38;;;;;;;14.20;2.57;;;;;;;;;;5141075;27;20016;-76
2022/01/30 02:06:06;;;;;;;5.03;2.00;;;;;;;;;;5136920;27;20030;-75
2022/01/30 02:08:39;;;;;;;8.23;3.33;;;;;;;;;;5132000;27;20098;-78
2022/01/30 02:14:02;;;;;;;18.60;2.73;;;;;;;;;;5136193;27;20032;-78
2022/01/30 02:27:32;;;;;;;11.05;2.72;;;;;;;;;;5104657;28;20043;-75
2022/01/30 02:29:58;;;;;;;11.63;2.88;;;;;;;;;;5137486;28;20106;-78
2022/01/30 02:32:25;;;;;;;14.43;3.53;;;;;;;;;;5134458;27;20039;-75
2022/01/30 02:34:51;;;;;;;10.07;2.50;;;;;;;;;;5134758;27;20012;-77
2022/01/30 02:37:18;;;;;;;9.67;2.37;;;;;;;;;;5134851;28;20027;-77
2022/01/30 02:39:44;;;;;;;11.20;2.50;;;;;;;;;;5131242;27;20036;-76
2022/01/30 02:42:18;;;;;;;12.20;2.90;;;;;;;;;;5142638;28;20015;-79
2022/01/30 02:44:52;;;;;;;11.57;2.10;;;;;;;;;;5135001;28;20083;-77
2022/01/30 02:52:40;;;;;;;10.87;2.30;;;;;;;;;;5134215;28;20031;-74
2022/01/30 02:55:07;;;;;;;19.23;2.53;;;;;;;;;;5140561;28;20143;-76
2022/01/30 02:57:33;;;;;;;9.23;2.20;;;;;;;;;;5133224;28;20012;-77
2022/01/30 02:59:59;;;;;;;8.10;2.57;;;;;;;;;;5131947;28;20028;-75
2022/01/30 03:02:25;;;;;;;8.00;2.50;;;;;;;;;;5131398;28;20043;-78
2022/01/30 03:04:51;;;;;;;8.73;2.27;;;;;;;;;;5134125;28;20034;-76
2022/01/30 03:07:20;;;;;;;12.37;3.07;;;;;;;;;;5131788;28;20035;-77
2022/01/30 03:09:46;;;;;;;5.73;1.73;;;;;;;;;;5148849;27;20087;-78
2022/01/30 03:12:12;;;;;;;10.43;2.67;;;;;;;;;;5140621;28;20020;-77
2022/01/30 03:14:38;;;;;;;7.40;2.07;;;;;;;;;;5135472;28;20031;-79
2022/01/30 03:17:04;;;;;;;12.33;2.23;;;;;;;;;;5136300;28;20020;-77
2022/01/30 03:19:30;;;;;;;6.30;1.87;;;;;;;;;;5133596;28;20043;-74
2022/01/30 03:21:56;;;;;;;2.40;0.97;;;;;;;;;;5131748;28;20022;-76
2022/01/30 03:24:22;;;;;;;13.40;2.50;;;;;;;;;;5135582;27;20038;-77
2022/01/30 03:26:48;;;;;;;8.57;2.20;;;;;;;;;;5136795;27;20091;-74
2022/01/30 03:29:14;;;;;;;9.33;1.67;;;;;;;;;;5152924;27;20031;-80
2022/01/30 03:31:42;;;;;;;8.83;2.33;;;;;;;;;;5134254;27;20024;-76
2022/01/30 03:34:08;;;;;;;6.67;2.07;;;;;;;;;;5134425;27;20020;-78
2022/01/30 03:36:35;;;;;;;12.47;2.83;;;;;;;;;;5136670;27;20039;-77
2022/01/30 03:39:01;;;;;;;9.27;1.63;;;;;;;;;;5131872;27;20020;-74
2022/01/30 03:41:27;;;;;;;9.90;2.50;;;;;;;;;;5136453;27;20043;-75
2022/01/30 03:43:54;;;;;;;14.70;3.20;;;;;;;;;;5143859;27;20069;-77
2022/01/30 03:46:20;;;;;;;8.00;3.37;;;;;;;;;;5134254;27;20032;-75
2022/01/30 03:48:46;;;;;;;9.67;1.80;;;;;;;;;;5153002;27;20039;-76
2022/01/30 03:51:13;;;;;;;8.90;2.37;;;;;;;;;;5134606;27;20046;-76
2022/01/30 03:53:39;;;;;;;14.53;3.30;;;;;;;;;;5140108;27;20030;-79
2022/01/30 03:56:05;;;;;;;15.77;3.60;;;;;;;;;;5138782;27;20039;-76
2022/01/30 03:58:32;;;;;;;10.60;1.87;;;;;;;;;;5135954;27;20027;-78
2022/01/30 04:00:58;;;;;;;20.97;3.20;;;;;;;;;;5144269;27;20054;-78
2022/01/30 04:03:26;;;;;;;7.40;2.13;;;;;;;;;;5136008;27;20016;-80
2022/01/30 04:05:53;;;;;;;17.67;3.67;;;;;;;;;;5132204;27;20020;-77
2022/01/30 04:08:21;;;;;;;15.03;2.60;;;;;;;;;;5140438;27;20068;-79
2022/01/30 04:10:47;;;;;;;9.77;2.27;;;;;;;;;;5136101;27;20590;-79
2022/01/30 04:13:14;;;;;;;8.97;2.00;;;;;;;;;;5144883;27;20034;-78
2022/01/30 04:15:40;;;;;;;10.97;1.40;;;;;;;;;;5152803;27;20031;-78
2022/01/30 04:18:06;;;;;;;10.47;2.43;;;;;;;;;;5138314;27;20027;-78
2022/01/30 04:20:32;;;;;;;11.47;3.43;;;;;;;;;;5137984;27;20023;-76
2022/01/30 04:22:59;;;;;;;10.27;1.73;;;;;;;;;;5142161;27;20097;-77
2022/01/30 04:25:25;;;;;;;17.70;2.30;;;;;;;;;;5132778;27;20042;-75
2022/01/30 04:27:51;;;;;;;17.57;2.67;;;;;;;;;;5141691;27;20696;-73
2022/01/30 04:30:21;;;;;;;11.60;2.20;;;;;;;;;;5132486;27;20042;-78
2022/01/30 04:32:47;;;;;;;11.47;1.83;;;;;;;;;;5132900;27;20024;-78
2022/01/30 04:35:21;;;;;;;14.47;2.60;;;;;;;;;;5144223;27;20027;-78
2022/01/30 04:59:46;;;;;;;14.03;3.17;;;;;;;;;;5134078;27;20039;-78
2022/01/30 05:02:55;;;;;;;9.97;3.43;;;;;;;;;;5133329;27;20055;-76
2022/01/30 05:05:08;;;;;;;14.53;3.33;;;;;;;;;;5128802;27;20027;-75
2022/01/30 05:07:37;;;;;;;17.40;3.13;;;;;;;;;;5138117;27;20578;-75
2022/01/30 05:10:06;;;;;;;5.33;1.70;;;;;;;;;;5139798;27;20261;-75
2022/01/30 05:12:56;;;;;;;8.20;1.97;;;;;;;;;;5144577;27;20091;-74
2022/01/30 05:15:20;;;;;;;14.90;2.27;;;;;;;;;;5130176;27;20071;-77
2022/01/30 05:17:47;;;;;;;4.17;1.63;;;;;;;;;;5134761;27;20015;-79
2022/01/30 05:20:13;;;;;;;4.00;1.00;;;;;;;;;;5127863;27;20036;-76
2022/01/30 05:22:39;;;;;;;18.07;4.20;;;;;;;;;;5132698;27;20057;-79
2022/01/30 05:25:06;;;;;;;11.37;1.70;;;;;;;;;;5132204;27;20188;-77
2022/01/30 05:27:32;;;;;;;16.20;2.80;;;;;;;;;;5140628;27;20036;-77
2022/01/30 05:29:58;;;;;;;10.60;1.33;;;;;;;;;;5141418;27;20016;-78
2022/01/30 05:32:24;;;;;;;9.13;1.60;;;;;;;;;;5129508;27;20027;-76
2022/01/30 05:34:50;;;;;;;30.33;3.30;;;;;;;;;;5139292;27;20038;-77
2022/01/30 05:37:18;;;;;;;15.33;3.43;;;;;;;;;;5130162;27;20035;-76
2022/01/30 05:39:44;;;;;;;14.10;2.57;;;;;;;;;;5134473;27;20028;-77
2022/01/30 05:42:11;;;;;;;12.63;2.07;;;;;;;;;;5139691;27;20314;-78
2022/01/30 05:47:13;;;;;;;7.25;1.98;;;;;;;;;;5133678;27;20036;-78
2022/01/30 05:49:39;;;;;;;8.23;1.83;;;;;;;;;;5149196;27;20176;-78
2022/01/30 05:52:05;;;;;;;15.67;2.47;;;;;;;;;;5132000;27;20115;-75
2022/01/30 05:54:31;;;;;;;10.27;2.03;;;;;;;;;;5139955;27;20019;-77
2022/01/30 05:56:57;;;;;;;14.87;4.67;;;;;;;;;;5130740;27;20039;-77
2022/01/30 05:59:23;;;;;;;4.97;2.03;;;;;;;;;;5139825;27;20031;-77
2022/01/30 06:01:49;;;;;;;6.67;1.63;;;;;;;;;;5136573;27;20103;-79
2022/01/30 06:04:15;;;;;;;6.00;2.03;;;;;;;;;;5148371;27;20028;-75
2022/01/30 06:06:49;;;;;;;10.33;1.97;;;;;;;;;;5140871;27;20043;-77
2022/01/30 06:11:44;;;;;;;15.57;2.37;;;;;;;;;;5131440;27;21351;-74
2022/01/30 06:14:10;;;;;;;3.73;1.53;;;;;;;;;;5148830;27;20042;-79
2022/01/30 06:16:36;;;;;;;1.80;0.90;;;;;;;;;;5130584;27;20343;-74
2022/01/30 06:19:03;;;;;;;12.90;2.00;;;;;;;;;;5131300;27;20119;-79
2022/01/30 06:21:29;;;;;;;28.37;2.53;;;;;;;;;;5138113;27;20024;-76
2022/01/30 06:23:55;;;;;;;12.73;2.00;;;;;;;;;;5133033;27;20047;-76
2022/01/30 06:26:21;;;;;;;10.70;2.47;;;;;;;;;;5135324;27;20016;-77
2022/01/30 06:28:47;;;;;;;6.23;1.40;;;;;;;;;;5149412;27;20027;-79
2022/01/30 06:31:15;;;;;;;11.03;1.77;;;;;;;;;;5133930;27;20048;-76
2022/01/30 06:33:41;;;;;;;12.10;1.90;;;;;;;;;;5130272;27;20024;-77
2022/01/30 06:36:07;;;;;;;12.73;3.03;;;;;;;;;;5131743;27;20023;-77
2022/01/30 06:38:33;;;;;;;9.53;2.10;;;;;;;;;;5130217;28;20034;-79
2022/01/30 06:41:01;;;;;;;4.77;1.47;;;;;;;;;;5131463;28;20044;-77
2022/01/30 06:43:27;;;;;;;6.67;1.90;;;;;;;;;;5132602;28;20020;-77
2022/01/30 06:45:55;;;;;;;13.63;1.57;;;;;;;;;;5131044;28;20022;-75
2022/01/30 06:48:21;;;;;;;24.67;3.40;;;;;;;;;;5135994;28;20031;-78
2022/01/30 06:50:47;;;;;;;19.33;2.17;;;;;;;;;;5128515;28;20024;-74
2022/01/30 06:53:13;;;;;;;11.30;2.43;;;;;;;;;;5137102;28;20031;-76
2022/01/30 06:55:42;;;;;;;10.60;1.60;;;;;;;;;;5151255;27;20004;-73
2022/01/30 06:58:16;;;;;;;4.77;1.00;;;;;;;;;;5140638;27;20126;-75
2022/01/30 07:00:44;;;;;;;12.57;3.03;;;;;;;;;;5156764;27;20042;-73
2022/01/30 07:03:10;;;;;;;8.13;1.60;;;;;;;;;;5134633;27;20035;-77
2022/01/30 07:05:36;;;;;;;11.13;1.37;;;;;;;;;;5141433;27;20022;-75
2022/01/30 07:08:02;;;;;;;6.83;1.37;;;;;;;;;;5134221;27;20028;-74
2022/01/30 07:10:30;;;;;;;6.60;1.57;;;;;;;;;;5135937;27;20031;-78
2022/01/30 07:12:56;;;;;;;15.53;2.87;;;;;;;;;;5135941;27;20109;-78
2022/01/30 07:15:23;;;;;;;5.93;1.23;;;;;;;;;;5134329;27;20079;-78
2022/01/30 07:17:51;;;;;;;6.80;2.33;;;;;;;;;;5140939;27;20091;-75
2022/01/30 07:20:17;;;;;;;5.87;1.80;;;;;;;;;;5142793;27;20035;-79
2022/01/30 07:22:43;;;;;;;8.17;1.63;;;;;;;;;;5137065;27;20027;-78
2022/01/30 07:25:09;;;;;;;7.10;1.20;;;;;;;;;;5141583;27;20043;-75
2022/01/30 07:27:36;;;;;;;16.67;3.63;;;;;;;;;;5143788;27;20053;-76
2022/01/30 07:30:03;;;;;;;8.07;2.37;;;;;;;;;;5134927;27;20303;-74
2022/01/30 07:32:29;;;;;;;14.33;2.00;;;;;;;;;;5154313;27;20012;-76
2022/01/30 07:34:55;;;;;;;17.53;3.03;;;;;;;;;;5140008;27;20004;-73
2022/01/30 07:37:22;;;;;;;8.27;2.50;;;;;;;;;;5135201;27;20042;-77
2022/01/30 07:39:48;;;;;;;17.37;1.60;;;;;;;;;;5135597;27;20164;-76
2022/01/30 07:42:16;;;;;;;7.00;2.20;;;;;;;;;;5136880;27;20020;-74
2022/01/30 07:44:42;;;;;;;10.57;2.67;;;;;;;;;;5141774;27;20039;-75
2022/01/30 07:47:08;;;;;;;4.33;1.50;;;;;;;;;;5141787;27;20134;-78
2022/01/30 07:49:34;;;;;;;7.23;1.33;;;;;;;;;;5133890;27;20044;-76
2022/01/30 07:52:00;;;;;;;9.97;1.90;;;;;;;;;;5154355;27;20031;-76
2022/01/30 07:54:27;;;;;;;11.20;2.27;;;;;;;;;;5135345;27;20034;-80
2022/01/30 07:56:55;;;;;;;6.97;2.37;;;;;;;;;;5134033;27;20035;-76
2022/01/30 07:59:21;;;;;;;5.80;1.63;;;;;;;;;;5135027;27;20027;-79
2022/01/30 08:01:47;;;;;;;9.80;1.80;;;;;;;;;;5134153;27;20083;-76
2022/01/30 08:04:15;;;;;;;12.20;1.67;;;;;;;;;;5141823;27;20043;-79
2022/01/30 08:06:41;;;;;;;9.53;1.33;;;;;;;;;;5141257;27;20039;-78
2022/01/30 08:09:07;;;;;;;4.37;1.50;;;;;;;;;;5141302;27;20027;-74
2022/01/30 08:11:33;;;;;;;4.60;0.70;;;;;;;;;;5150824;27;20031;-78
2022/01/30 08:13:59;;;;;;;5.97;1.13;;;;;;;;;;5132605;27;20031;-75
2022/01/30 08:16:27;;;;;;;8.20;1.30;;;;;;;;;;5153782;27;20035;-75
2022/01/30 08:18:53;;;;;;;11.40;1.20;;;;;;;;;;5137338;27;20034;-76
2022/01/30 08:21:19;;;;;;;12.33;2.50;;;;;;;;;;5133820;27;20060;-76
2022/01/30 08:23:45;;;;;;;5.90;1.27;;;;;;;;;;5135969;27;20047;-77
2022/01/30 08:26:11;;;;;;;7.57;1.30;;;;;;;;;;5136194;27;20035;-74
2022/01/30 08:28:37;;;;;;;7.13;2.30;;;;;;;;;;5138161;27;20067;-76
2022/01/30 08:31:03;;;;;;;6.47;1.27;;;;;;;;;;5133874;27;20024;-77
2022/01/30 08:33:29;;;;;;;11.87;2.20;;;;;;;;;;5152907;27;20027;-78
2022/01/30 08:35:57;;;;;;;11.03;3.60;;;;;;;;;;5132051;27;20028;-78
2022/01/30 08:38:23;;;;;;;11.30;3.37;;;;;;;;;;5137626;27;20048;-76
2022/01/30 08:40:50;;;;;;;4.47;2.67;;;;;;;;;;5134904;27;20023;-77
2022/01/30 08:43:21;;;;;;;15.27;1.83;;;;;;;;;;5133497;27;20028;-75
2022/01/30 08:45:47;;;;;;;6.07;1.60;;;;;;;;;;5142770;27;20059;-74
2022/01/30 08:48:14;;;;;;;4.17;1.67;;;;;;;;;;5133137;27;20028;-77
2022/01/30 08:50:42;;;;;;;11.23;1.73;;;;;;;;;;5134696;27;20688;-76
2022/01/30 08:53:08;;;;;;;7.73;1.80;;;;;;;;;;5136139;27;20027;-77
2022/01/30 08:55:34;;;;;;;10.73;3.73;;;;;;;;;;5133090;27;20035;-75
2022/01/30 08:58:07;;;;;;;16.47;2.27;;;;;;;;;;5133159;27;20035;-77
2022/01/30 09:00:35;;;;;;;8.10;1.93;;;;;;;;;;5134853;27;20023;-74
2022/01/30 09:03:02;;;;;;;10.87;1.40;;;;;;;;;;5137432;27;20087;-75
2022/01/30 09:05:30;;;;;;;5.33;1.10;;;;;;;;;;5142598;27;20065;-77
2022/01/30 09:07:56;;;;;;;3.30;1.20;;;;;;;;;;5141286;27;20455;-81
2022/01/30 09:10:22;;;;;;;11.50;1.70;;;;;;;;;;5134456;27;20043;-80
2022/01/30 09:12:50;;;;;;;10.03;1.87;;;;;;;;;;5129680;27;20038;-80
2022/01/30 09:15:17;;;;;;;12.83;1.53;;;;;;;;;;5128127;27;20420;-80
2022/01/30 09:17:43;;;;;;;4.53;2.03;;;;;;;;;;5125896;27;20020;-79
2022/01/30 09:20:10;;;;;;;4.93;1.47;;;;;;;;;;5134332;27;20233;-80
2022/01/30 09:22:36;;;;;;;7.33;2.03;;;;;;;;;;5125295;27;20032;-80
2022/01/30 09:25:02;;;;;;;11.47;1.40;;;;;;;;;;5129004;27;20058;-75
2022/01/30 09:27:28;;;;;;;17.57;2.77;;;;;;;;;;5135813;27;20164;-79
2022/01/30 09:29:54;;;;;;;7.87;1.47;;;;;;;;;;5127817;27;20057;-77
2022/01/30 09:32:20;;;;;;;14.53;2.47;;;;;;;;;;5125684;27;20039;-76
2022/01/30 09:34:46;;;;;;;13.53;3.90;;;;;;;;;;5130250;27;20031;-78
2022/01/30 09:37:13;;;;;;;15.63;2.73;;;;;;;;;;5124878;27;20028;-80
2022/01/30 09:39:39;;;;;;;7.80;2.77;;;;;;;;;;5121035;27;20020;-76
2022/01/30 09:42:06;;;;;;;8.27;1.93;;;;;;;;;;5126024;27;20047;-79
2022/01/30 09:44:35;;;;;;;11.53;1.67;;;;;;;;;;5117250;27;20034;-77
2022/01/30 09:47:01;;;;;;;7.47;1.40;;;;;;;;;;5126232;27;20039;-79
2022/01/30 09:49:29;;;;;;;9.57;1.93;;;;;;;;;;5116546;27;20028;-80
2022/01/30 09:51:55;;;;;;;13.87;2.93;;;;;;;;;;5134052;27;20080;-79
2022/01/30 09:54:22;;;;;;;12.67;3.37;;;;;;;;;;5117403;27;20122;-80
2022/01/30 09:56:48;;;;;;;7.40;2.20;;;;;;;;;;5130658;27;20028;-79
2022/01/30 09:59:15;;;;;;;14.70;2.30;;;;;;;;;;5120094;27;20034;-78
2022/01/30 10:01:41;;;;;;;5.80;1.27;;;;;;;;;;5136721;27;20028;-79
2022/01/30 10:04:07;;;;;;;12.90;1.77;;;;;;;;;;5119592;27;20031;-79
2022/01/30 10:07:19;;;;;;;6.60;1.30;;;;;;;;;;5115431;27;20091;-79
2022/01/30 10:09:48;;;;;;;13.43;2.13;;;;;;;;;;5042896;28;20033;-76
2022/01/30 10:12:23;;;;;;;7.97;2.53;;;;;;;;;;5053398;28;20047;-81
2022/01/30 10:14:59;;;;;;;8.80;1.73;;;;;;;;;;5051265;28;20028;-78
2022/01/30 10:17:25;;;;;;;14.63;2.10;;;;;;;;;;5039666;28;20034;-77
2022/01/30 10:20:11;;;;;;;14.27;2.93;;;;;;;;;;5045608;28;20960;-79
2022/01/30 10:22:57;;;;;;;7.77;1.93;;;;;;;;;;5048062;28;20029;-76
2022/01/30 10:25:25;;;;;;;9.67;2.20;;;;;;;;;;5046738;28;20045;-79
2022/01/30 10:28:11;;;;;;;9.40;1.47;;;;;;;;;;5031006;28;20049;-80
2022/01/30 10:30:40;;;;;;;7.33;1.90;;;;;;;;;;5045143;28;20049;-77
2022/01/30 10:33:09;;;;;;;5.80;1.73;;;;;;;;;;5041507;28;20098;-77
2022/01/30 10:35:53;;;;;;;17.10;1.80;;;;;;;;;;5038924;28;20037;-77
2022/01/30 10:38:23;;;;;;;10.67;2.33;;;;;;;;;;5029311;28;20073;-79
2022/01/30 10:40:53;;;;;;;8.33;1.63;;;;;;;;;;5090605;28;20510;-80
2022/01/30 10:43:19;;;;;;;8.60;1.50;;;;;;;;;;5130832;27;20039;-80
2022/01/30 10:45:48;;;;;;;18.30;2.90;;;;;;;;;;5133134;28;20172;-78
2022/01/30 10:48:20;;;;;;;5.60;1.43;;;;;;;;;;5147181;27;20094;-74
2022/01/30 10:50:48;;;;;;;12.55;2.47;;;;;;;;;;5135063;28;20023;-79
2022/01/30 10:53:17;;;;;;;11.63;2.17;;;;;;;;;;5148558;27;20035;-73
2022/01/30 10:55:44;;;;;;;9.53;2.33;;;;;;;;;;5135079;28;20026;-75
2022/01/30 10:58:18;;;;;;;8.67;2.40;;;;;;;;;;5130290;28;20028;-77
2022/01/30 11:00:58;;;;;;;10.33;2.07;;;;;;;;;;5128237;28;20091;-77
2022/01/30 11:03:40;;;;;;;8.23;2.20;;;;;;;;;;5144341;27;20020;-77
2022/01/30 11:06:08;;;;;;;10.93;2.27;;;;;;;;;;5126673;28;20032;-80
2022/01/30 11:08:35;;;;;;;21.07;2.93;;;;;;;;;;5129700;28;20047;-78
2022/01/30 11:11:26;;;;;;;14.13;1.93;;;;;;;;;;5123144;28;20027;-79
2022/01/30 11:14:02;;;;;;;5.40;1.97;;;;;;;;;;5122129;28;20059;-81
2022/01/30 11:19:15;;;;;;;5.00;1.57;;;;;;;;;;5124492;28;20078;-79
2022/01/30 11:21:44;;;;;;;9.67;1.17;;;;;;;;;;5139113;27;20309;-79
2022/01/30 11:24:10;;;;;;;8.77;1.47;;;;;;;;;;5129260;28;20043;-75
2022/01/30 11:26:37;;;;;;;9.77;1.80;;;;;;;;;;5144475;27;20605;-77
2022/01/30 11:29:03;;;;;;;8.67;1.70;;;;;;;;;;5125388;28;20648;-80
2022/01/30 11:31:29;;;;;;;20.13;3.30;;;;;;;;;;5137478;28;20042;-75
2022/01/30 11:33:55;;;;;;;6.03;1.67;;;;;;;;;;5128770;28;20116;-79
2022/01/30 11:36:25;;;;;;;8.40;2.17;;;;;;;;;;5130161;28;20019;-75
2022/01/30 11:38:51;;;;;;;9.63;1.97;;;;;;;;;;5136987;28;20194;-80
2022/01/30 11:41:18;;;;;;;11.87;2.83;;;;;;;;;;5133005;28;20118;-80
2022/01/30 11:44:03;;;;;;;13.93;2.07;;;;;;;;;;5122823;28;20028;-81
2022/01/30 11:46:29;;;;;;;16.53;3.40;;;;;;;;;;5127328;27;20040;-80
2022/01/30 11:49:12;;;;;;;7.10;1.90;;;;;;;;;;5130522;27;20035;-77
2022/01/30 11:51:48;;;;;;;8.93;1.80;;;;;;;;;;5131949;27;20048;-79
2022/01/30 11:54:35;;;;;;;16.23;2.90;;;;;;;;;;5135288;27;20653;-78
2022/01/30 11:57:01;;;;;;;12.33;2.07;;;;;;;;;;5134214;27;20032;-78
2022/01/30 11:59:40;;;;;;;20.17;2.73;;;;;;;;;;5139501;27;20022;-80
2022/01/30 12:02:28;;;;;;;15.97;3.50;;;;;;;;;;5142482;27;20035;-79
2022/01/30 12:04:54;;;;;;;13.57;2.50;;;;;;;;;;5135197;27;20031;-76
2022/01/30 12:07:33;;;;;;;9.80;1.97;;;;;;;;;;5136709;27;20040;-78
2022/01/30 12:10:21;;;;;;;9.10;2.77;;;;;;;;;;5138543;27;20032;-76
2022/01/30 12:12:56;;;;;;;11.00;3.63;;;;;;;;;;5133027;27;20032;-78
2022/01/30 12:15:41;;;;;;;9.33;3.70;;;;;;;;;;5136050;27;21661;-76
2022/01/30 12:18:08;;;;;;;4.70;1.47;;;;;;;;;;5138576;27;20130;-75
2022/01/30 12:20:53;;;;;;;8.50;2.30;;;;;;;;;;5141902;27;20015;-73
2022/01/30 12:23:25;;;;;;;14.37;2.13;;;;;;;;;;5136922;27;20031;-76
2022/01/30 12:26:05;;;;;;;18.08;2.40;;;;;;;;;;5149386;27;20028;-78
2022/01/30 12:28:40;;;;;;;10.43;1.90;;;;;;;;;;5130201;27;20096;-74
2022/01/30 12:31:25;;;;;;;12.17;3.13;;;;;;;;;;5134528;27;20076;-76
2022/01/30 12:34:00;;;;;;;9.50;2.50;;;;;;;;;;5141545;27;20031;-75
2022/01/30 12:36:26;;;;;;;10.10;2.60;;;;;;;;;;5138487;27;20031;-74
2022/01/30 12:38:53;;;;;;;27.87;4.30;;;;;;;;;;5133852;27;20028;-74
2022/01/30 12:41:21;;;;;;;11.67;2.10;;;;;;;;;;5141566;27;20034;-77
2022/01/30 12:43:51;;;;;;;14.60;2.87;;;;;;;;;;5136216;27;20028;-76
2022/01/30 12:46:17;;;;;;;9.13;2.03;;;;;;;;;;5142685;27;20038;-76
2022/01/30 12:48:58;;;;;;;11.63;3.33;;;;;;;;;;5138434;27;20126;-78
2022/01/30 12:51:24;;;;;;;3.90;1.73;;;;;;;;;;5129639;27;20032;-75
2022/01/30 12:53:55;;;;;;;17.93;3.70;;;;;;;;;;5137322;27;20019;-78
2022/01/30 12:56:24;;;;;;;12.43;1.70;;;;;;;;;;5133648;27;20160;-78
2022/01/30 12:58:54;;;;;;;14.47;2.83;;;;;;;;;;5136973;27;20040;-78
2022/01/30 13:01:27;;;;;;;8.57;2.97;;;;;;;;;;5134194;27;20028;-75
2022/01/30 13:04:07;;;;;;;10.68;1.67;;;;;;;;;;5139068;27;20020;-76
2022/01/30 13:06:36;;;;;;;9.40;3.17;;;;;;;;;;5137299;27;20042;-76
2022/01/30 13:09:05;;;;;;;9.17;1.57;;;;;;;;;;5133725;27;20023;-76
2022/01/30 13:11:31;;;;;;;10.17;2.27;;;;;;;;;;5136259;27;20028;-80
2022/01/30 13:13:59;;;;;;;8.10;2.40;;;;;;;;;;5139997;27;20094;-74
2022/01/30 13:16:30;;;;;;;6.03;1.97;;;;;;;;;;5134161;27;20016;-78
2022/01/30 13:18:56;;;;;;;7.67;2.17;;;;;;;;;;5136834;27;20047;-74
2022/01/30 13:21:23;;;;;;;20.77;3.53;;;;;;;;;;5140614;27;20041;-78
2022/01/30 13:23:49;;;;;;;17.00;2.27;;;;;;;;;;5133443;27;20035;-79
2022/01/30 13:26:28;;;;;;;10.30;2.83;;;;;;;;;;5136099;27;20028;-74
2022/01/30 13:28:54;;;;;;;11.03;2.00;;;;;;;;;;5131500;27;20036;-75
2022/01/30 13:31:21;;;;;;;11.80;2.07;;;;;;;;;;5138813;27;20027;-76
2022/01/30 13:34:05;;;;;;;12.17;1.93;;;;;;;;;;5131345;27;20031;-77
2022/01/30 13:36:31;;;;;;;14.00;2.00;;;;;;;;;;5141711;27;20148;-74
2022/01/30 13:38:57;;;;;;;13.10;1.70;;;;;;;;;;5135176;27;20020;-73
2022/01/30 13:41:28;;;;;;;7.70;2.00;;;;;;;;;;5137217;27;20011;-75
2022/01/30 13:43:57;;;;;;;8.80;2.10;;;;;;;;;;5136429;27;20016;-75
2022/01/30 13:49:11;;;;;;;15.37;3.30;;;;;;;;;;5134105;27;20047;-79
2022/01/30 13:51:37;;;;;;;7.17;2.23;;;;;;;;;;5154651;27;20039;-75
2022/01/30 13:54:04;;;;;;;11.23;2.77;;;;;;;;;;5142601;27;20035;-77
2022/01/30 13:56:30;;;;;;;6.97;1.50;;;;;;;;;;5149789;27;20028;-74
2022/01/30 13:58:56;;;;;;;10.00;2.40;;;;;;;;;;5139403;27;20178;-74
2022/01/30 14:01:30;;;;;;;14.40;2.10;;;;;;;;;;5137870;27;20020;-75
2022/01/30 14:04:09;;;;;;;8.43;1.80;;;;;;;;;;5135805;27;20031;-76
2022/01/30 14:06:35;;;;;;;15.13;3.30;;;;;;;;;;5136867;27;20024;-76
2022/01/30 14:09:04;;;;;;;5.80;1.90;;;;;;;;;;5135534;27;20038;-77
2022/01/30 14:11:38;;;;;;;6.30;1.50;;;;;;;;;;5150272;27;20036;-75
2022/01/30 14:14:06;;;;;;;11.70;1.60;;;;;;;;;;5141286;27;20020;-74
2022/01/30 14:16:51;;;;;;;11.33;3.67;;;;;;;;;;5150172;27;20107;-75
2022/01/30 14:19:18;;;;;;;12.23;2.83;;;;;;;;;;5153148;27;20027;-77
2022/01/30 14:21:44;;;;;;;11.43;2.13;;;;;;;;;;5136634;27;20031;-76
2022/01/30 14:24:28;;;;;;;8.40;1.30;;;;;;;;;;5135021;27;20038;-75
2022/01/30 14:27:10;;;;;;;16.93;3.07;;;;;;;;;;5135140;27;20031;-73
2022/01/30 14:29:38;;;;;;;13.90;2.80;;;;;;;;;;5136433;27;20071;-75
2022/01/30 14:32:14;;;;;;;14.90;2.90;;;;;;;;;;5133696;28;20066;-75
2022/01/30 14:34:44;;;;;;;16.17;2.57;;;;;;;;;;5135794;27;20039;-78
2022/01/30 14:37:12;;;;;;;12.30;3.03;;;;;;;;;;5134861;28;20024;-77
2022/01/30 14:39:38;;;;;;;12.50;2.67;;;;;;;;;;5130813;27;20080;-75
2022/01/30 14:42:10;;;;;;;7.07;1.37;;;;;;;;;;5138898;28;20074;-80
2022/01/30 14:44:37;;;;;;;15.67;2.37;;;;;;;;;;5155309;27;20027;-76
2022/01/30 14:47:04;;;;;;;13.37;2.57;;;;;;;;;;5143734;27;20026;-75
2022/01/30 14:49:30;;;;;;;9.73;2.33;;;;;;;;;;5141559;28;20032;-75
2022/01/30 14:51:56;;;;;;;8.23;1.63;;;;;;;;;;5143206;28;20068;-75
2022/01/30 14:54:23;;;;;;;8.10;2.57;;;;;;;;;;5143234;28;20035;-74
2022/01/30 14:56:49;;;;;;;14.60;2.30;;;;;;;;;;5140768;28;20068;-76
2022/01/30 14:59:15;;;;;;;12.63;2.10;;;;;;;;;;5153930;27;20053;-74
2022/01/30 15:01:41;;;;;;;3.77;1.50;;;;;;;;;;5136694;28;20023;-75
2022/01/30 15:04:10;;;;;;;9.67;2.57;;;;;;;;;;5138125;28;20138;-74
2022/01/30 15:06:37;;;;;;;11.47;1.80;;;;;;;;;;5135034;28;20039;-76
2022/01/30 15:09:04;;;;;;;16.07;2.30;;;;;;;;;;5150105;27;20028;-78
2022/01/30 15:11:30;;;;;;;9.87;1.57;;;;;;;;;;5134853;28;20022;-75
2022/01/30 15:13:56;;;;;;;7.93;1.83;;;;;;;;;;5141722;28;20015;-77
2022/01/30 15:16:30;;;;;;;14.80;2.33;;;;;;;;;;5140077;28;20016;-77
2022/01/30 15:18:59;;;;;;;6.33;1.47;;;;;;;;;;5147573;27;20038;-75
2022/01/30 15:21:25;;;;;;;10.97;2.17;;;;;;;;;;5142499;27;20092;-74
2022/01/30 15:23:51;;;;;;;13.53;1.90;;;;;;;;;;5147398;27;20027;-73
2022/01/30 15:26:17;;;;;;;10.93;1.97;;;;;;;;;;5141208;27;20034;-75
2022/01/30 15:28:43;;;;;;;7.00;2.23;;;;;;;;;;5138189;27;20038;-73
2022/01/30 15:31:09;;;;;;;11.27;2.70;;;;;;;;;;5141914;27;20020;-74
2022/01/30 15:33:35;;;;;;;7.53;2.17;;;;;;;;;;5136857;27;20020;-73
2022/01/30 15:36:03;;;;;;;4.77;1.43;;;;;;;;;;5138647;27;20055;-74
2022/01/30 15:38:29;;;;;;;18.87;3.20;;;;;;;;;;5157967;27;20020;-75
2022/01/30 15:40:55;;;;;;;8.47;1.53;;;;;;;;;;5138198;27;20015;-73
2022/01/30 15:43:22;;;;;;;9.67;1.97;;;;;;;;;;5157177;27;20024;-74
2022/01/30 15:51:18;;;;;;;16.70;3.83;;;;;;;;;;5142068;27;20022;-73
2022/01/30 15:53:44;;;;;;;8.57;1.43;;;;;;;;;;5141992;27;20020;-73
2022/01/30 15:56:10;;;;;;;9.63;2.07;;;;;;;;;;5144431;27;20034;-73